createdAt,value
2022-09-09T00:02:24.829Z,100633.81
2022-09-09T00:07:40.436Z,100638.84
2022-09-09T00:12:56.960Z,100630.84
2022-09-09T00:18:10.292Z,100635.06
2022-09-09T00:23:21.532Z,100635.12
2022-09-09T00:28:31.082Z,100627.16
2022-09-09T00:33:34.870Z,100613.41
2022-09-09T00:38:42.380Z,100613.25
2022-09-09T00:43:57.897Z,100609.56
2022-09-09T00:49:11.323Z,100612.94
2022-09-09T00:54:30.025Z,100601.66
2022-09-09T00:59:47.876Z,100601.66
2022-09-09T01:04:51.552Z,100598.94
2022-09-09T01:09:59.137Z,100602.94
2022-09-09T01:15:12.849Z,100598.41
2022-09-09T01:20:23.379Z,100598.88
2022-09-09T01:31:01.041Z,100562.03
2022-09-09T01:36:11.927Z,100562.03
2022-09-09T01:41:16.276Z,100568.56
2022-09-09T01:46:24.341Z,100566.06
2022-09-09T01:51:28.857Z,100569.44
2022-09-09T01:56:45.213Z,100558.91
2022-09-09T02:02:06.081Z,100557.31
2022-09-09T02:07:24.498Z,100553.94
2022-09-09T02:12:31.327Z,100558.09
2022-09-09T02:17:40.748Z,100554.53
2022-09-09T02:22:48.710Z,100558.97
2022-09-09T02:27:53.412Z,100550.25
2022-09-09T02:33:02.475Z,100549.31
2022-09-09T02:38:12.836Z,100550.41
2022-09-09T02:43:18.401Z,100544.44
2022-09-09T02:48:32.455Z,100536.53
2022-09-09T02:53:45.519Z,100538.28
2022-09-09T02:58:52.846Z,100538.28
2022-09-09T03:03:58.255Z,100540.69
2022-09-09T03:09:03.488Z,100543.19
2022-09-09T03:14:07.492Z,100544.19
2022-09-09T03:19:14.555Z,100542.37
2022-09-09T03:24:18.536Z,100546.66
2022-09-09T03:29:22.641Z,100545.81
2022-09-09T03:34:30.075Z,100544.09
2022-09-09T03:39:34.776Z,100545.66
2022-09-09T03:44:38.536Z,100534.31
2022-09-09T03:49:44.400Z,100534.34
2022-09-09T03:54:48.910Z,100535.09
2022-09-09T03:59:52.987Z,100534.19
2022-09-09T04:04:58.100Z,100534.19
2022-09-09T04:10:01.866Z,100535.81
2022-09-09T04:15:07.790Z,100534.91
2022-09-09T04:20:13.705Z,100535.81
2022-09-09T04:25:17.871Z,100533.13
2022-09-09T04:30:21.965Z,100525.34
2022-09-09T04:35:28.208Z,100525.22
2022-09-09T04:40:34.116Z,100528.78
2022-09-09T04:45:38.897Z,100519.31
2022-09-09T04:50:44.527Z,100511.59
2022-09-09T04:55:48.629Z,100503.06
2022-09-09T05:00:53.448Z,100505.63
2022-09-09T05:06:06.949Z,100499.62
2022-09-09T05:11:18.459Z,100485.78
2022-09-09T05:16:24.097Z,100492.78
2022-09-09T05:21:31.359Z,100499.78
2022-09-09T05:26:35.101Z,100509.38
2022-09-09T05:31:40.354Z,100507.00
2022-09-09T05:36:47.922Z,100507.00
2022-09-09T05:41:52.369Z,100507.03
2022-09-09T05:46:56.853Z,100507.28
2022-09-09T05:52:04.224Z,100511.84
2022-09-09T05:57:08.284Z,100505.19
2022-09-09T06:02:13.424Z,100506.16
2022-09-09T06:07:18.905Z,100507.16
2022-09-09T06:12:22.875Z,100508.19
2022-09-09T06:17:26.899Z,100507.38
2022-09-09T06:22:32.506Z,100509.88
2022-09-09T06:27:36.919Z,100506.59
2022-09-09T06:32:41.565Z,100507.47
2022-09-09T06:37:49.964Z,100498.81
2022-09-09T06:43:01.390Z,100497.38
2022-09-09T06:48:08.702Z,100501.75
2022-09-09T06:53:14.374Z,100486.28
2022-09-09T06:58:18.522Z,100493.22
2022-09-09T07:03:22.242Z,100489.19
2022-09-09T07:08:27.992Z,100493.75
2022-09-09T07:13:32.297Z,100493.88
2022-09-09T07:18:37.990Z,100494.81
2022-09-09T07:23:43.736Z,100495.06
2022-09-09T07:28:49.210Z,100494.41
2022-09-09T07:33:53.645Z,100499.13
2022-09-09T07:39:01.243Z,100500.09
2022-09-09T07:44:07.619Z,100485.50
2022-09-09T07:49:13.542Z,100495.97
2022-09-09T07:54:21.559Z,100483.97
2022-09-09T07:59:26.139Z,100486.66
2022-09-09T08:04:30.448Z,100494.44
2022-09-09T08:09:35.684Z,100483.19
2022-09-09T08:14:40.068Z,100497.13
2022-09-09T08:19:43.909Z,100494.34
2022-09-09T08:24:49.664Z,100495.41
2022-09-09T08:29:54.706Z,100510.03
2022-09-09T08:35:01.261Z,100490.97
2022-09-09T08:40:18.693Z,100502.84
2022-09-09T08:45:36.524Z,100504.84
2022-09-09T08:50:42.224Z,100510.38
2022-09-09T08:55:50.424Z,100512.41
2022-09-09T09:01:12.183Z,100512.34
2022-09-09T09:06:29.121Z,100516.66
2022-09-09T09:11:40.866Z,100533.34
2022-09-09T09:16:52.340Z,100536.75
2022-09-09T09:22:04.679Z,100540.97
2022-09-09T09:27:15.043Z,100542.47
2022-09-09T09:32:23.743Z,100550.16
2022-09-09T09:37:31.456Z,100554.09
2022-09-09T09:42:37.639Z,100545.91
2022-09-09T09:47:41.724Z,100542.47
2022-09-09T09:52:56.720Z,100538.28
2022-09-09T09:58:06.861Z,100545.63
2022-09-09T10:03:23.747Z,100538.84
2022-09-09T10:08:29.197Z,100533.91
2022-09-09T10:13:44.543Z,100529.72
2022-09-09T10:19:00.705Z,100531.66
2022-09-09T10:24:28.525Z,100537.06
2022-09-09T10:29:52.458Z,100541.19
2022-09-09T10:35:00.118Z,100541.72
2022-09-09T10:40:19.220Z,100540.97
2022-09-09T10:45:35.703Z,100539.13
2022-09-09T10:51:01.117Z,100529.56
2022-09-09T10:56:11.443Z,100537.25
2022-09-09T11:01:21.088Z,100544.06
2022-09-09T11:06:30.999Z,100537.00
2022-09-09T11:11:39.107Z,100532.06
2022-09-09T11:16:50.629Z,100533.53
2022-09-09T11:21:55.808Z,100540.47
2022-09-09T11:27:05.092Z,100536.69
2022-09-09T11:32:29.618Z,100531.78
2022-09-09T11:37:56.099Z,100531.38
2022-09-09T11:43:06.926Z,100526.81
2022-09-09T11:48:27.365Z,100532.94
2022-09-09T11:53:31.351Z,100536.34
2022-09-09T11:58:41.840Z,100539.78
2022-09-09T12:03:50.954Z,100537.12
2022-09-09T12:08:59.653Z,100539.84
2022-09-09T12:14:03.331Z,100528.56
2022-09-09T12:19:17.707Z,100529.38
2022-09-09T12:24:29.670Z,100536.31
2022-09-09T12:29:43.227Z,100529.25
2022-09-09T12:34:52.582Z,100529.31
2022-09-09T12:39:58.747Z,100528.69
2022-09-09T12:45:05.198Z,100521.72
2022-09-09T12:50:22.145Z,100521.00
2022-09-09T12:55:31.102Z,100520.28
2022-09-09T13:00:36.005Z,100520.41
2022-09-09T13:05:44.198Z,100507.22
2022-09-09T13:10:53.182Z,100519.25
2022-09-09T13:16:00.918Z,100507.94
2022-09-09T13:21:06.320Z,100502.78
2022-09-09T13:26:23.738Z,100500.28
2022-09-09T13:31:32.764Z,100502.06
2022-09-09T13:36:37.842Z,100508.16
2022-09-09T13:41:45.930Z,100500.31
2022-09-09T13:46:49.746Z,100502.91
2022-09-09T13:52:06.357Z,100504.03
2022-09-09T13:57:19.201Z,100506.75
2022-09-09T14:02:24.180Z,100490.97
2022-09-09T14:07:29.429Z,100495.94
2022-09-09T14:12:33.186Z,100507.34
2022-09-09T14:17:37.228Z,100502.88
2022-09-09T14:22:42.257Z,100510.00
2022-09-09T14:27:47.002Z,100499.47
2022-09-09T14:32:50.690Z,100503.03
2022-09-09T14:37:56.120Z,100513.53
2022-09-09T14:43:00.367Z,100516.03
2022-09-09T14:48:05.520Z,100515.94
2022-09-09T14:53:11.556Z,100537.44
2022-09-09T14:58:15.505Z,100534.41
2022-09-09T15:03:19.262Z,100537.56
2022-09-09T15:08:24.623Z,100536.63
2022-09-09T15:13:28.390Z,100541.16
2022-09-09T15:18:32.079Z,100539.91
2022-09-09T15:23:38.443Z,100529.88
2022-09-09T15:28:44.607Z,100538.84
2022-09-09T15:33:51.976Z,100538.87
2022-09-09T15:38:57.481Z,100538.69
2022-09-09T15:44:02.495Z,100537.56
2022-09-09T15:49:10.139Z,100532.09
2022-09-09T15:54:18.435Z,100541.31
2022-09-09T15:59:21.899Z,100544.12
2022-09-09T16:04:26.424Z,100554.59
2022-09-09T16:09:32.808Z,100540.50
2022-09-09T16:14:36.873Z,100556.22
2022-09-09T16:19:40.705Z,100563.22
2022-09-09T16:24:46.298Z,100558.69
2022-09-09T16:29:50.225Z,100560.50
2022-09-09T16:34:54.015Z,100568.22
2022-09-09T16:39:59.618Z,100578.66
2022-09-09T16:45:03.432Z,100574.28
2022-09-09T16:50:08.091Z,100574.22
2022-09-09T16:55:13.318Z,100582.03
2022-09-09T17:00:18.499Z,100589.00
2022-09-09T17:05:22.251Z,100596.13
2022-09-09T17:10:27.712Z,100597.00
2022-09-09T17:15:31.618Z,100605.72
2022-09-09T17:20:46.505Z,100596.84
2022-09-09T17:25:59.856Z,100595.19
2022-09-09T17:31:05.660Z,100605.28
2022-09-09T17:36:12.306Z,100598.44
2022-09-09T17:41:19.353Z,100591.41
2022-09-09T17:46:24.928Z,100591.25
2022-09-09T17:51:31.134Z,100605.16
2022-09-09T17:56:36.792Z,100608.59
2022-09-09T18:01:42.262Z,100618.06
2022-09-09T18:06:48.078Z,100615.38
2022-09-09T18:11:55.376Z,100635.09
2022-09-09T18:17:00.272Z,100641.28
2022-09-09T18:22:06.853Z,100646.28
2022-09-09T18:27:12.097Z,100646.25
2022-09-09T18:32:17.075Z,100655.72
2022-09-09T18:37:20.753Z,100652.06
2022-09-09T18:42:26.619Z,100664.25
2022-09-09T18:47:30.327Z,100666.78
2022-09-09T18:52:34.011Z,100673.72
2022-09-09T18:57:39.283Z,100675.31
2022-09-09T19:02:43.586Z,100682.09
2022-09-09T19:07:47.349Z,100688.97
2022-09-09T19:12:52.584Z,100693.22
2022-09-09T19:17:56.717Z,100699.22
2022-09-09T19:23:00.739Z,100703.59
2022-09-09T19:28:07.416Z,100699.06
2022-09-09T19:33:11.226Z,100701.53
2022-09-09T19:38:14.955Z,100694.37
2022-09-09T19:43:20.625Z,100701.47
2022-09-09T19:48:25.025Z,100722.22
2022-09-09T19:53:28.754Z,100723.09
2022-09-09T19:58:35.332Z,100726.69
2022-09-09T20:03:40.003Z,100723.94
2022-09-09T20:08:47.238Z,100722.19
2022-09-09T20:13:52.601Z,100725.63
2022-09-09T20:18:58.600Z,100742.09
2022-09-09T20:24:04.611Z,100738.53
2022-09-09T20:29:15.753Z,100748.13
2022-09-09T20:34:22.844Z,100752.37
2022-09-09T20:39:27.789Z,100753.97
2022-09-09T20:44:33.119Z,100746.13
2022-09-09T20:49:37.012Z,100735.41
2022-09-09T20:54:41.682Z,100739.84
2022-09-09T20:59:48.333Z,100731.84
2022-09-09T21:04:52.167Z,100735.41
2022-09-09T21:09:57.375Z,100737.88
2022-09-09T21:15:02.776Z,100743.19
2022-09-09T21:20:07.777Z,100736.97
2022-09-09T21:25:11.730Z,100736.19
2022-09-09T21:30:16.837Z,100742.19
2022-09-09T21:35:21.502Z,100726.50
2022-09-09T21:40:26.296Z,100735.03
2022-09-09T21:45:31.601Z,100734.97
2022-09-09T21:50:37.434Z,100733.38
2022-09-09T21:55:42.411Z,100729.00
2022-09-09T22:00:48.426Z,100729.72
2022-09-09T22:05:54.116Z,100728.78
2022-09-09T22:10:57.916Z,100745.13
2022-09-09T22:16:03.557Z,100747.78
2022-09-09T22:21:08.703Z,100749.47
2022-09-09T22:26:12.607Z,100745.78
2022-09-09T22:31:17.728Z,100748.38
2022-09-09T22:36:21.943Z,100745.69
2022-09-09T22:41:26.386Z,100747.19
2022-09-09T22:46:31.506Z,100753.06
2022-09-09T22:51:35.279Z,100747.78
2022-09-09T22:56:38.982Z,100758.87
2022-09-09T23:01:44.598Z,100744.22
2022-09-09T23:06:48.273Z,100744.91
2022-09-09T23:11:52.035Z,100750.88
2022-09-09T23:16:57.067Z,100758.34
2022-09-09T23:22:01.702Z,100761.00
2022-09-09T23:27:05.668Z,100769.00
2022-09-09T23:32:10.714Z,100760.25
2022-09-09T23:37:14.811Z,100767.12
2022-09-09T23:42:18.631Z,100759.97
2022-09-09T23:47:23.769Z,100765.19
2022-09-09T23:52:27.598Z,100764.47
2022-09-09T23:57:31.241Z,100755.81
